sensor_id;sensor_type;location;lat;lon;timestamp;temperature;humidity
2389;DHT22;1205;47.984;7.668;2023-05-02T00:00:00;14.70;99.90
2389;DHT22;1205;47.984;7.668;2023-05-02T00:02:26;14.60;99.90
2389;DHT22;1205;47.984;7.668;2023-05-02T00:04:52;14.60;99.90
2389;DHT22;1205;47.984;7.668;2023-05-02T00:07:17;14.60;99.90
2389;DHT22;1205;47.984;7.668;2023-05-02T00:09:43;14.60;99.90
2389;DHT22;1205;47.984;7.668;2023-05-02T00:12:08;14.60;99.90
2389;DHT22;1205;47.984;7.668;2023-05-02T00:14:34;14.50;99.90
2389;DHT22;1205;47.984;7.668;2023-05-02T00:17:00;14.50;99.90
2389;DHT22;1205;47.984;7.668;2023-05-02T00:19:25;14.40;99.90
2389;DHT22;1205;47.984;7.668;2023-05-02T00:21:51;14.40;99.90
2389;DHT22;1205;47.984;7.668;2023-05-02T00:24:17;14.40;99.90
2389;DHT22;1205;47.984;7.668;2023-05-02T00:26:43;14.40;99.90
2389;DHT22;1205;47.984;7.668;2023-05-02T00:29:08;14.50;99.90
2389;DHT22;1205;47.984;7.668;2023-05-02T00:31:34;14.40;99.90
2389;DHT22;1205;47.984;7.668;2023-05-02T00:34:00;14.50;99.90
2389;DHT22;1205;47.984;7.668;2023-05-02T00:36:26;14.50;99.90
2389;DHT22;1205;47.984;7.668;2023-05-02T00:38:52;14.50;99.90
2389;DHT22;1205;47.984;7.668;2023-05-02T00:41:17;14.50;99.90
2389;DHT22;1205;47.984;7.668;2023-05-02T00:43:43;14.50;99.90
2389;DHT22;1205;47.984;7.668;2023-05-02T00:46:09;14.50;99.90
2389;DHT22;1205;47.984;7.668;2023-05-02T00:48:37;14.50;99.90
2389;DHT22;1205;47.984;7.668;2023-05-02T00:51:03;14.60;99.90
2389;DHT22;1205;47.984;7.668;2023-05-02T00:53:30;14.50;99.90
2389;DHT22;1205;47.984;7.668;2023-05-02T00:55:57;14.50;99.90
2389;DHT22;1205;47.984;7.668;2023-05-02T00:58:23;14.60;99.90
2389;DHT22;1205;47.984;7.668;2023-05-02T01:12:03;14.50;99.90
2389;DHT22;1205;47.984;7.668;2023-05-02T01:14:34;14.40;99.90
2389;DHT22;1205;47.984;7.668;2023-05-02T01:17:05;14.30;99.90
2389;DHT22;1205;47.984;7.668;2023-05-02T01:19:35;14.20;99.90
2389;DHT22;1205;47.984;7.668;2023-05-02T01:22:06;14.20;99.90
2389;DHT22;1205;47.984;7.668;2023-05-02T01:27:27;14.00;99.90
2389;DHT22;1205;47.984;7.668;2023-05-02T01:29:55;14.00;99.90
2389;DHT22;1205;47.984;7.668;2023-05-02T01:32:22;14.10;99.90
2389;DHT22;1205;47.984;7.668;2023-05-02T01:34:49;14.00;99.90
2389;DHT22;1205;47.984;7.668;2023-05-02T01:37:18;14.00;99.90
2389;DHT22;1205;47.984;7.668;2023-05-02T01:39:45;14.00;99.90
2389;DHT22;1205;47.984;7.668;2023-05-02T01:42:13;13.90;99.90
2389;DHT22;1205;47.984;7.668;2023-05-02T01:44:41;13.90;99.90
2389;DHT22;1205;47.984;7.668;2023-05-02T01:47:08;13.90;99.90
2389;DHT22;1205;47.984;7.668;2023-05-02T01:49:35;13.90;99.90
2389;DHT22;1205;47.984;7.668;2023-05-02T01:52:03;13.90;99.90
2389;DHT22;1205;47.984;7.668;2023-05-02T01:54:29;13.90;99.90
2389;DHT22;1205;47.984;7.668;2023-05-02T01:56:57;13.80;99.90
2389;DHT22;1205;47.984;7.668;2023-05-02T01:59:24;13.90;99.90
2389;DHT22;1205;47.984;7.668;2023-05-02T02:01:52;13.80;99.90
2389;DHT22;1205;47.984;7.668;2023-05-02T02:04:18;13.90;99.90
2389;DHT22;1205;47.984;7.668;2023-05-02T02:06:49;13.90;99.90
2389;DHT22;1205;47.984;7.668;2023-05-02T02:09:16;13.80;99.90
2389;DHT22;1205;47.984;7.668;2023-05-02T02:11:46;13.80;99.90
2389;DHT22;1205;47.984;7.668;2023-05-02T02:14:19;13.80;99.90
2389;DHT22;1205;47.984;7.668;2023-05-02T02:16:45;13.70;99.90
2389;DHT22;1205;47.984;7.668;2023-05-02T02:19:13;13.60;99.90
2389;DHT22;1205;47.984;7.668;2023-05-02T02:21:42;13.50;99.90
2389;DHT22;1205;47.984;7.668;2023-05-02T02:24:08;13.40;99.90
2389;DHT22;1205;47.984;7.668;2023-05-02T02:26:35;13.40;99.90
2389;DHT22;1205;47.984;7.668;2023-05-02T02:29:01;13.30;99.90
2389;DHT22;1205;47.984;7.668;2023-05-02T02:31:35;13.30;99.90
2389;DHT22;1205;47.984;7.668;2023-05-02T02:34:03;13.20;99.90
2389;DHT22;1205;47.984;7.668;2023-05-02T02:36:38;13.20;99.90
2389;DHT22;1205;47.984;7.668;2023-05-02T02:42:30;13.10;99.90
2389;DHT22;1205;47.984;7.668;2023-05-02T02:47:50;12.90;99.90
2389;DHT22;1205;47.984;7.668;2023-05-02T02:50:25;12.80;99.90
2389;DHT22;1205;47.984;7.668;2023-05-02T02:52:59;12.80;99.90
2389;DHT22;1205;47.984;7.668;2023-05-02T02:57:59;12.70;99.90
2389;DHT22;1205;47.984;7.668;2023-05-02T03:00:26;12.60;99.90
2389;DHT22;1205;47.984;7.668;2023-05-02T03:02:53;12.50;99.90
2389;DHT22;1205;47.984;7.668;2023-05-02T03:05:21;12.50;99.90
2389;DHT22;1205;47.984;7.668;2023-05-02T03:07:48;12.40;99.90
2389;DHT22;1205;47.984;7.668;2023-05-02T03:10:13;12.40;99.90
2389;DHT22;1205;47.984;7.668;2023-05-02T03:12:39;12.40;99.90
2389;DHT22;1205;47.984;7.668;2023-05-02T03:18:15;12.20;99.90
2389;DHT22;1205;47.984;7.668;2023-05-02T03:20:41;12.20;99.90
2389;DHT22;1205;47.984;7.668;2023-05-02T03:23:07;12.10;99.90
2389;DHT22;1205;47.984;7.668;2023-05-02T03:25:33;12.10;99.90
2389;DHT22;1205;47.984;7.668;2023-05-02T03:27:58;12.10;99.90
2389;DHT22;1205;47.984;7.668;2023-05-02T03:30:24;12.10;99.90
2389;DHT22;1205;47.984;7.668;2023-05-02T03:32:50;11.90;99.90
2389;DHT22;1205;47.984;7.668;2023-05-02T03:35:16;11.70;99.90
2389;DHT22;1205;47.984;7.668;2023-05-02T03:37:41;11.80;99.90
2389;DHT22;1205;47.984;7.668;2023-05-02T03:40:07;11.70;99.90
2389;DHT22;1205;47.984;7.668;2023-05-02T03:42:36;11.80;99.90
2389;DHT22;1205;47.984;7.668;2023-05-02T03:45:05;12.00;99.90
2389;DHT22;1205;47.984;7.668;2023-05-02T03:47:31;12.00;99.90
2389;DHT22;1205;47.984;7.668;2023-05-02T03:49:57;12.00;99.90
2389;DHT22;1205;47.984;7.668;2023-05-02T03:52:23;12.10;99.90
2389;DHT22;1205;47.984;7.668;2023-05-02T03:54:49;12.00;99.90
2389;DHT22;1205;47.984;7.668;2023-05-02T03:57:15;12.10;99.90
2389;DHT22;1205;47.984;7.668;2023-05-02T03:59:40;12.20;99.90
2389;DHT22;1205;47.984;7.668;2023-05-02T04:02:07;12.20;99.90
2389;DHT22;1205;47.984;7.668;2023-05-02T04:04:33;12.30;99.90
2389;DHT22;1205;47.984;7.668;2023-05-02T04:06:58;12.30;99.90
2389;DHT22;1205;47.984;7.668;2023-05-02T04:09:24;12.30;99.90
2389;DHT22;1205;47.984;7.668;2023-05-02T04:11:50;12.30;99.90
2389;DHT22;1205;47.984;7.668;2023-05-02T04:14:17;12.40;99.90
2389;DHT22;1205;47.984;7.668;2023-05-02T04:16:47;12.40;99.90
2389;DHT22;1205;47.984;7.668;2023-05-02T04:19:13;12.40;99.90
2389;DHT22;1205;47.984;7.668;2023-05-02T04:21:38;12.40;99.90
2389;DHT22;1205;47.984;7.668;2023-05-02T04:24:04;12.40;99.90
2389;DHT22;1205;47.984;7.668;2023-05-02T04:26:30;12.30;99.90
2389;DHT22;1205;47.984;7.668;2023-05-02T04:28:55;12.30;99.90
2389;DHT22;1205;47.984;7.668;2023-05-02T04:31:21;12.30;99.90
2389;DHT22;1205;47.984;7.668;2023-05-02T04:33:47;12.30;99.90
2389;DHT22;1205;47.984;7.668;2023-05-02T04:36:13;12.30;99.90
2389;DHT22;1205;47.984;7.668;2023-05-02T04:38:39;12.40;99.90
2389;DHT22;1205;47.984;7.668;2023-05-02T04:41:05;12.40;99.90
2389;DHT22;1205;47.984;7.668;2023-05-02T04:43:31;12.40;99.90
2389;DHT22;1205;47.984;7.668;2023-05-02T04:45:56;12.40;99.90
2389;DHT22;1205;47.984;7.668;2023-05-02T04:48:23;12.40;99.90
2389;DHT22;1205;47.984;7.668;2023-05-02T04:50:51;12.30;99.90
2389;DHT22;1205;47.984;7.668;2023-05-02T04:53:17;12.30;99.90
2389;DHT22;1205;47.984;7.668;2023-05-02T04:55:43;12.30;99.90
2389;DHT22;1205;47.984;7.668;2023-05-02T04:58:09;12.30;99.90
2389;DHT22;1205;47.984;7.668;2023-05-02T05:00:34;12.40;99.90
2389;DHT22;1205;47.984;7.668;2023-05-02T05:03:00;12.50;99.90
2389;DHT22;1205;47.984;7.668;2023-05-02T05:05:26;12.50;99.90
2389;DHT22;1205;47.984;7.668;2023-05-02T05:07:51;12.60;99.90
2389;DHT22;1205;47.984;7.668;2023-05-02T05:10:17;12.80;99.90
2389;DHT22;1205;47.984;7.668;2023-05-02T05:12:43;12.90;99.90
2389;DHT22;1205;47.984;7.668;2023-05-02T05:15:08;12.80;99.90
2389;DHT22;1205;47.984;7.668;2023-05-02T05:17:34;13.00;99.90
2389;DHT22;1205;47.984;7.668;2023-05-02T05:20:00;13.20;99.90
2389;DHT22;1205;47.984;7.668;2023-05-02T05:22:26;13.20;99.90
2389;DHT22;1205;47.984;7.668;2023-05-02T05:24:53;13.20;99.90
2389;DHT22;1205;47.984;7.668;2023-05-02T05:27:19;13.30;99.90
2389;DHT22;1205;47.984;7.668;2023-05-02T05:29:45;13.30;99.90
2389;DHT22;1205;47.984;7.668;2023-05-02T05:32:10;13.30;99.90
2389;DHT22;1205;47.984;7.668;2023-05-02T05:34:36;13.30;99.90
2389;DHT22;1205;47.984;7.668;2023-05-02T05:37:02;13.40;99.90
2389;DHT22;1205;47.984;7.668;2023-05-02T05:39:27;13.40;99.90
2389;DHT22;1205;47.984;7.668;2023-05-02T05:41:53;13.40;99.90
2389;DHT22;1205;47.984;7.668;2023-05-02T05:44:19;13.40;99.90
2389;DHT22;1205;47.984;7.668;2023-05-02T05:46:46;13.40;99.90
2389;DHT22;1205;47.984;7.668;2023-05-02T05:49:14;13.30;99.90
2389;DHT22;1205;47.984;7.668;2023-05-02T05:51:40;13.40;99.90
2389;DHT22;1205;47.984;7.668;2023-05-02T05:54:05;13.60;99.90
2389;DHT22;1205;47.984;7.668;2023-05-02T05:56:32;13.70;99.90
2389;DHT22;1205;47.984;7.668;2023-05-02T05:58:57;13.60;99.90
2389;DHT22;1205;47.984;7.668;2023-05-02T06:01:23;13.60;99.90
2389;DHT22;1205;47.984;7.668;2023-05-02T06:03:48;13.80;99.90
2389;DHT22;1205;47.984;7.668;2023-05-02T06:06:14;14.00;99.90
2389;DHT22;1205;47.984;7.668;2023-05-02T06:08:40;14.00;99.90
2389;DHT22;1205;47.984;7.668;2023-05-02T06:11:11;14.10;99.90
2389;DHT22;1205;47.984;7.668;2023-05-02T06:13:37;14.20;99.90
2389;DHT22;1205;47.984;7.668;2023-05-02T06:16:02;14.20;99.90
2389;DHT22;1205;47.984;7.668;2023-05-02T06:18:28;14.20;99.90
2389;DHT22;1205;47.984;7.668;2023-05-02T06:20:54;14.30;99.90
2389;DHT22;1205;47.984;7.668;2023-05-02T06:23:19;14.60;99.90
2389;DHT22;1205;47.984;7.668;2023-05-02T06:25:45;14.90;99.90
2389;DHT22;1205;47.984;7.668;2023-05-02T06:28:10;15.00;99.90
2389;DHT22;1205;47.984;7.668;2023-05-02T06:30:36;15.10;99.90
2389;DHT22;1205;47.984;7.668;2023-05-02T06:33:05;15.60;99.90
2389;DHT22;1205;47.984;7.668;2023-05-02T06:35:30;15.80;99.90
2389;DHT22;1205;47.984;7.668;2023-05-02T06:37:56;16.00;99.90
2389;DHT22;1205;47.984;7.668;2023-05-02T06:40:21;16.00;99.90
2389;DHT22;1205;47.984;7.668;2023-05-02T06:42:47;15.80;99.90
2389;DHT22;1205;47.984;7.668;2023-05-02T06:45:13;15.90;99.90
2389;DHT22;1205;47.984;7.668;2023-05-02T06:47:38;15.90;99.90
2389;DHT22;1205;47.984;7.668;2023-05-02T06:50:04;16.40;99.90
2389;DHT22;1205;47.984;7.668;2023-05-02T06:52:30;16.40;99.90
2389;DHT22;1205;47.984;7.668;2023-05-02T06:54:55;16.50;99.90
2389;DHT22;1205;47.984;7.668;2023-05-02T06:57:21;16.40;99.90
2389;DHT22;1205;47.984;7.668;2023-05-02T06:59:47;16.50;99.90
2389;DHT22;1205;47.984;7.668;2023-05-02T07:02:12;16.50;99.90
2389;DHT22;1205;47.984;7.668;2023-05-02T07:04:38;17.00;99.90
2389;DHT22;1205;47.984;7.668;2023-05-02T07:07:03;17.40;99.90
2389;DHT22;1205;47.984;7.668;2023-05-02T07:09:29;17.80;99.90
2389;DHT22;1205;47.984;7.668;2023-05-02T07:11:54;18.10;99.90
2389;DHT22;1205;47.984;7.668;2023-05-02T07:14:20;18.30;99.90
2389;DHT22;1205;47.984;7.668;2023-05-02T07:16:46;18.50;99.90
2389;DHT22;1205;47.984;7.668;2023-05-02T07:19:11;18.30;99.20
2389;DHT22;1205;47.984;7.668;2023-05-02T07:21:37;18.20;99.40
2389;DHT22;1205;47.984;7.668;2023-05-02T07:24:02;18.40;99.30
2389;DHT22;1205;47.984;7.668;2023-05-02T07:26:28;18.50;98.50
2389;DHT22;1205;47.984;7.668;2023-05-02T07:28:54;18.70;98.30
2389;DHT22;1205;47.984;7.668;2023-05-02T07:31:20;18.80;98.40
2389;DHT22;1205;47.984;7.668;2023-05-02T07:33:45;18.60;98.10
2389;DHT22;1205;47.984;7.668;2023-05-02T07:36:11;18.50;98.30
2389;DHT22;1205;47.984;7.668;2023-05-02T07:38:36;18.20;98.40
2389;DHT22;1205;47.984;7.668;2023-05-02T07:41:02;18.30;98.50
2389;DHT22;1205;47.984;7.668;2023-05-02T07:43:28;18.20;98.40
2389;DHT22;1205;47.984;7.668;2023-05-02T07:45:53;18.40;98.10
2389;DHT22;1205;47.984;7.668;2023-05-02T07:48:19;18.30;97.50
2389;DHT22;1205;47.984;7.668;2023-05-02T07:50:44;18.30;97.80
2389;DHT22;1205;47.984;7.668;2023-05-02T07:53:10;18.00;97.70
2389;DHT22;1205;47.984;7.668;2023-05-02T07:55:36;17.90;97.80
2389;DHT22;1205;47.984;7.668;2023-05-02T07:58:01;17.80;98.50
2389;DHT22;1205;47.984;7.668;2023-05-02T08:00:28;17.80;98.30
2389;DHT22;1205;47.984;7.668;2023-05-02T08:02:54;17.70;98.40
2389;DHT22;1205;47.984;7.668;2023-05-02T08:05:20;17.60;98.70
2389;DHT22;1205;47.984;7.668;2023-05-02T08:07:45;17.70;98.00
2389;DHT22;1205;47.984;7.668;2023-05-02T08:10:11;18.10;97.50
2389;DHT22;1205;47.984;7.668;2023-05-02T08:12:38;18.40;97.30
2389;DHT22;1205;47.984;7.668;2023-05-02T08:15:09;18.50;97.40
2389;DHT22;1205;47.984;7.668;2023-05-02T08:17:35;18.70;97.70
2389;DHT22;1205;47.984;7.668;2023-05-02T08:20:01;18.70;96.80
2389;DHT22;1205;47.984;7.668;2023-05-02T08:22:27;18.90;97.00
2389;DHT22;1205;47.984;7.668;2023-05-02T08:24:52;18.60;95.80
2389;DHT22;1205;47.984;7.668;2023-05-02T08:27:18;18.80;96.80
2389;DHT22;1205;47.984;7.668;2023-05-02T08:29:43;18.80;96.60
2389;DHT22;1205;47.984;7.668;2023-05-02T08:32:09;19.10;96.00
2389;DHT22;1205;47.984;7.668;2023-05-02T08:34:34;19.00;96.20
2389;DHT22;1205;47.984;7.668;2023-05-02T08:37:01;19.30;96.50
2389;DHT22;1205;47.984;7.668;2023-05-02T08:39:26;19.20;96.10
2389;DHT22;1205;47.984;7.668;2023-05-02T08:41:52;19.10;96.10
2389;DHT22;1205;47.984;7.668;2023-05-02T08:44:18;18.90;96.10
2389;DHT22;1205;47.984;7.668;2023-05-02T08:46:43;19.20;97.80
2389;DHT22;1205;47.984;7.668;2023-05-02T08:49:10;19.40;97.50
2389;DHT22;1205;47.984;7.668;2023-05-02T08:51:36;18.90;95.70
2389;DHT22;1205;47.984;7.668;2023-05-02T08:54:03;19.00;96.20
2389;DHT22;1205;47.984;7.668;2023-05-02T08:56:31;18.80;95.70
2389;DHT22;1205;47.984;7.668;2023-05-02T08:58:57;18.70;96.70
2389;DHT22;1205;47.984;7.668;2023-05-02T09:01:23;18.30;96.30
2389;DHT22;1205;47.984;7.668;2023-05-02T09:03:53;18.50;98.20
2389;DHT22;1205;47.984;7.668;2023-05-02T09:06:21;18.80;98.00
2389;DHT22;1205;47.984;7.668;2023-05-02T09:08:48;19.00;96.60
2389;DHT22;1205;47.984;7.668;2023-05-02T09:11:15;19.10;97.20
2389;DHT22;1205;47.984;7.668;2023-05-02T09:13:45;19.10;96.80
2389;DHT22;1205;47.984;7.668;2023-05-02T09:16:15;19.40;97.50
2389;DHT22;1205;47.984;7.668;2023-05-02T09:18:42;19.70;97.40
2389;DHT22;1205;47.984;7.668;2023-05-02T09:21:13;19.60;97.10
2389;DHT22;1205;47.984;7.668;2023-05-02T09:23:47;19.30;94.90
2389;DHT22;1205;47.984;7.668;2023-05-02T09:26:19;19.10;95.20
2389;DHT22;1205;47.984;7.668;2023-05-02T09:28:53;19.00;93.80
2389;DHT22;1205;47.984;7.668;2023-05-02T09:31:21;19.20;95.00
2389;DHT22;1205;47.984;7.668;2023-05-02T09:33:47;19.20;95.20
2389;DHT22;1205;47.984;7.668;2023-05-02T09:36:15;19.00;96.20
2389;DHT22;1205;47.984;7.668;2023-05-02T09:38:42;19.20;94.70
2389;DHT22;1205;47.984;7.668;2023-05-02T09:41:08;19.10;94.70
2389;DHT22;1205;47.984;7.668;2023-05-02T09:43:35;18.80;94.10
2389;DHT22;1205;47.984;7.668;2023-05-02T09:46:05;18.70;96.20
2389;DHT22;1205;47.984;7.668;2023-05-02T09:48:33;18.90;95.90
2389;DHT22;1205;47.984;7.668;2023-05-02T09:51:19;18.60;95.60
2389;DHT22;1205;47.984;7.668;2023-05-02T09:53:45;18.50;95.70
2389;DHT22;1205;47.984;7.668;2023-05-02T09:56:10;18.40;95.20
2389;DHT22;1205;47.984;7.668;2023-05-02T09:58:36;18.40;94.90
2389;DHT22;1205;47.984;7.668;2023-05-02T10:01:02;18.30;94.80
2389;DHT22;1205;47.984;7.668;2023-05-02T10:03:28;18.20;94.80
2389;DHT22;1205;47.984;7.668;2023-05-02T10:05:54;18.40;94.70
2389;DHT22;1205;47.984;7.668;2023-05-02T10:08:23;18.30;94.70
2389;DHT22;1205;47.984;7.668;2023-05-02T10:10:54;18.30;94.60
2389;DHT22;1205;47.984;7.668;2023-05-02T10:13:21;18.50;94.90
2389;DHT22;1205;47.984;7.668;2023-05-02T10:15:50;18.40;95.20
2389;DHT22;1205;47.984;7.668;2023-05-02T10:18:46;18.20;94.70
2389;DHT22;1205;47.984;7.668;2023-05-02T10:21:11;18.30;94.10
2389;DHT22;1205;47.984;7.668;2023-05-02T10:23:41;18.20;94.20
2389;DHT22;1205;47.984;7.668;2023-05-02T10:26:13;18.20;95.00
2389;DHT22;1205;47.984;7.668;2023-05-02T10:28:40;17.90;95.20
2389;DHT22;1205;47.984;7.668;2023-05-02T10:31:09;18.20;94.90
2389;DHT22;1205;47.984;7.668;2023-05-02T10:33:35;18.40;95.00
2389;DHT22;1205;47.984;7.668;2023-05-02T10:36:02;18.50;95.00
2389;DHT22;1205;47.984;7.668;2023-05-02T10:38:28;18.70;95.10
2389;DHT22;1205;47.984;7.668;2023-05-02T10:41:00;18.40;94.90
2389;DHT22;1205;47.984;7.668;2023-05-02T10:43:31;18.50;94.40
2389;DHT22;1205;47.984;7.668;2023-05-02T10:45:57;18.40;94.90
2389;DHT22;1205;47.984;7.668;2023-05-02T10:48:24;18.40;94.30
2389;DHT22;1205;47.984;7.668;2023-05-02T10:50:55;18.30;93.20
2389;DHT22;1205;47.984;7.668;2023-05-02T10:53:25;18.50;93.70
2389;DHT22;1205;47.984;7.668;2023-05-02T10:56:18;18.40;93.30
2389;DHT22;1205;47.984;7.668;2023-05-02T10:58:51;18.30;93.20
2389;DHT22;1205;47.984;7.668;2023-05-02T11:04:01;18.50;92.30
2389;DHT22;1205;47.984;7.668;2023-05-02T11:06:28;18.40;92.70
2389;DHT22;1205;47.984;7.668;2023-05-02T11:11:48;18.40;91.30
2389;DHT22;1205;47.984;7.668;2023-05-02T11:19:29;18.60;91.80
2389;DHT22;1205;47.984;7.668;2023-05-02T11:24:49;18.50;92.10
2389;DHT22;1205;47.984;7.668;2023-05-02T11:30:03;18.50;91.00
2389;DHT22;1205;47.984;7.668;2023-05-02T11:35:21;18.50;91.80
2389;DHT22;1205;47.984;7.668;2023-05-02T11:37:54;18.70;91.30
2389;DHT22;1205;47.984;7.668;2023-05-02T11:40:20;18.70;91.60
2389;DHT22;1205;47.984;7.668;2023-05-02T11:42:46;18.80;90.70
2389;DHT22;1205;47.984;7.668;2023-05-02T11:45:11;18.70;90.00
2389;DHT22;1205;47.984;7.668;2023-05-02T11:47:37;18.80;91.40
2389;DHT22;1205;47.984;7.668;2023-05-02T11:50:06;18.90;90.90
2389;DHT22;1205;47.984;7.668;2023-05-02T11:52:38;19.00;91.00
2389;DHT22;1205;47.984;7.668;2023-05-02T11:55:11;19.00;90.50
2389;DHT22;1205;47.984;7.668;2023-05-02T11:57:38;19.00;89.50
2389;DHT22;1205;47.984;7.668;2023-05-02T12:00:04;18.90;90.00
2389;DHT22;1205;47.984;7.668;2023-05-02T12:02:41;18.80;90.40
2389;DHT22;1205;47.984;7.668;2023-05-02T12:05:08;19.00;87.60
2389;DHT22;1205;47.984;7.668;2023-05-02T12:07:39;18.80;87.00
2389;DHT22;1205;47.984;7.668;2023-05-02T12:10:06;18.70;82.60
2389;DHT22;1205;47.984;7.668;2023-05-02T12:12:32;18.70;84.10
2389;DHT22;1205;47.984;7.668;2023-05-02T12:15:02;18.80;86.00
2389;DHT22;1205;47.984;7.668;2023-05-02T12:17:28;18.70;86.20
2389;DHT22;1205;47.984;7.668;2023-05-02T12:19:54;18.70;89.10
2389;DHT22;1205;47.984;7.668;2023-05-02T12:22:22;18.80;90.00
2389;DHT22;1205;47.984;7.668;2023-05-02T12:24:47;18.80;90.00
2389;DHT22;1205;47.984;7.668;2023-05-02T12:27:14;18.70;88.20
2389;DHT22;1205;47.984;7.668;2023-05-02T12:29:44;18.70;89.40
2389;DHT22;1205;47.984;7.668;2023-05-02T12:32:11;18.70;90.90
2389;DHT22;1205;47.984;7.668;2023-05-02T12:34:38;18.70;88.10
2389;DHT22;1205;47.984;7.668;2023-05-02T12:37:04;18.70;87.60
2389;DHT22;1205;47.984;7.668;2023-05-02T12:42:12;18.70;90.00
2389;DHT22;1205;47.984;7.668;2023-05-02T12:44:40;18.70;90.90
2389;DHT22;1205;47.984;7.668;2023-05-02T12:47:08;18.70;88.00
2389;DHT22;1205;47.984;7.668;2023-05-02T12:49:53;18.60;84.60
2389;DHT22;1205;47.984;7.668;2023-05-02T12:52:25;18.60;86.40
2389;DHT22;1205;47.984;7.668;2023-05-02T12:57:44;18.80;87.00
2389;DHT22;1205;47.984;7.668;2023-05-02T13:00:10;18.80;86.20
2389;DHT22;1205;47.984;7.668;2023-05-02T13:02:36;18.90;86.40
2389;DHT22;1205;47.984;7.668;2023-05-02T13:05:02;19.00;86.40
2389;DHT22;1205;47.984;7.668;2023-05-02T13:07:37;19.00;86.50
2389;DHT22;1205;47.984;7.668;2023-05-02T13:10:03;19.10;84.80
2389;DHT22;1205;47.984;7.668;2023-05-02T13:12:29;19.00;82.90
2389;DHT22;1205;47.984;7.668;2023-05-02T13:14:54;19.00;82.50
2389;DHT22;1205;47.984;7.668;2023-05-02T13:17:20;19.10;82.20
2389;DHT22;1205;47.984;7.668;2023-05-02T13:19:46;19.00;84.60
2389;DHT22;1205;47.984;7.668;2023-05-02T13:22:12;19.00;84.10
2389;DHT22;1205;47.984;7.668;2023-05-02T13:24:37;19.00;85.80
2389;DHT22;1205;47.984;7.668;2023-05-02T13:27:03;19.10;86.00
2389;DHT22;1205;47.984;7.668;2023-05-02T13:29:29;19.20;86.50
2389;DHT22;1205;47.984;7.668;2023-05-02T13:31:55;19.10;87.90
2389;DHT22;1205;47.984;7.668;2023-05-02T13:34:21;19.10;88.80
2389;DHT22;1205;47.984;7.668;2023-05-02T13:36:47;19.20;87.10
2389;DHT22;1205;47.984;7.668;2023-05-02T13:39:12;19.30;87.10
2389;DHT22;1205;47.984;7.668;2023-05-02T13:41:38;19.10;84.70
2389;DHT22;1205;47.984;7.668;2023-05-02T13:44:03;19.20;85.40
2389;DHT22;1205;47.984;7.668;2023-05-02T13:46:29;19.40;86.50
2389;DHT22;1205;47.984;7.668;2023-05-02T13:49:01;19.40;85.50
2389;DHT22;1205;47.984;7.668;2023-05-02T13:51:28;19.40;85.10
2389;DHT22;1205;47.984;7.668;2023-05-02T13:53:58;19.30;86.20
2389;DHT22;1205;47.984;7.668;2023-05-02T13:56:24;19.30;84.60
2389;DHT22;1205;47.984;7.668;2023-05-02T13:58:50;19.20;84.40
2389;DHT22;1205;47.984;7.668;2023-05-02T14:01:16;19.30;83.40
2389;DHT22;1205;47.984;7.668;2023-05-02T14:03:41;19.30;83.90
2389;DHT22;1205;47.984;7.668;2023-05-02T14:06:07;19.20;85.50
2389;DHT22;1205;47.984;7.668;2023-05-02T14:08:32;19.00;85.40
2389;DHT22;1205;47.984;7.668;2023-05-02T14:10:58;19.20;84.90
2389;DHT22;1205;47.984;7.668;2023-05-02T14:13:24;19.20;83.80
2389;DHT22;1205;47.984;7.668;2023-05-02T14:15:50;19.30;86.20
2389;DHT22;1205;47.984;7.668;2023-05-02T14:18:17;19.20;86.20
2389;DHT22;1205;47.984;7.668;2023-05-02T14:20:42;19.30;85.60
2389;DHT22;1205;47.984;7.668;2023-05-02T14:23:08;19.40;84.90
2389;DHT22;1205;47.984;7.668;2023-05-02T14:25:35;19.40;84.60
2389;DHT22;1205;47.984;7.668;2023-05-02T14:28:00;19.40;84.30
2389;DHT22;1205;47.984;7.668;2023-05-02T14:30:27;19.40;84.00
2389;DHT22;1205;47.984;7.668;2023-05-02T14:32:53;19.40;82.90
2389;DHT22;1205;47.984;7.668;2023-05-02T14:35:18;19.30;82.00
2389;DHT22;1205;47.984;7.668;2023-05-02T14:37:44;19.20;83.00
2389;DHT22;1205;47.984;7.668;2023-05-02T14:40:11;19.20;84.10
2389;DHT22;1205;47.984;7.668;2023-05-02T14:42:41;19.30;85.30
2389;DHT22;1205;47.984;7.668;2023-05-02T14:45:10;19.30;85.70
2389;DHT22;1205;47.984;7.668;2023-05-02T14:47:36;19.20;85.00
2389;DHT22;1205;47.984;7.668;2023-05-02T14:50:02;19.10;87.40
2389;DHT22;1205;47.984;7.668;2023-05-02T14:52:29;19.00;88.30
2389;DHT22;1205;47.984;7.668;2023-05-02T14:54:54;19.00;89.70
2389;DHT22;1205;47.984;7.668;2023-05-02T14:57:20;18.80;89.70
2389;DHT22;1205;47.984;7.668;2023-05-02T14:59:45;18.90;90.20
2389;DHT22;1205;47.984;7.668;2023-05-02T15:02:11;18.90;89.50
2389;DHT22;1205;47.984;7.668;2023-05-02T15:04:36;18.70;89.90
2389;DHT22;1205;47.984;7.668;2023-05-02T15:07:03;18.80;89.40
2389;DHT22;1205;47.984;7.668;2023-05-02T15:09:28;18.80;89.10
2389;DHT22;1205;47.984;7.668;2023-05-02T15:11:54;18.80;88.70
2389;DHT22;1205;47.984;7.668;2023-05-02T15:14:20;18.80;89.20
2389;DHT22;1205;47.984;7.668;2023-05-02T15:16:46;19.00;90.10
2389;DHT22;1205;47.984;7.668;2023-05-02T15:19:12;18.80;91.60
2389;DHT22;1205;47.984;7.668;2023-05-02T15:21:37;18.90;92.10
2389;DHT22;1205;47.984;7.668;2023-05-02T15:24:03;18.70;92.40
2389;DHT22;1205;47.984;7.668;2023-05-02T15:26:29;18.70;92.70
2389;DHT22;1205;47.984;7.668;2023-05-02T15:28:55;18.60;92.80
2389;DHT22;1205;47.984;7.668;2023-05-02T15:31:21;18.60;92.90
2389;DHT22;1205;47.984;7.668;2023-05-02T15:33:46;18.50;92.60
2389;DHT22;1205;47.984;7.668;2023-05-02T15:36:12;18.50;92.20
2389;DHT22;1205;47.984;7.668;2023-05-02T15:38:38;18.60;92.00
2389;DHT22;1205;47.984;7.668;2023-05-02T15:41:06;18.60;92.00
2389;DHT22;1205;47.984;7.668;2023-05-02T15:43:32;18.60;91.30
2389;DHT22;1205;47.984;7.668;2023-05-02T15:45:58;18.70;91.70
2389;DHT22;1205;47.984;7.668;2023-05-02T15:48:29;18.70;91.10
2389;DHT22;1205;47.984;7.668;2023-05-02T15:50:55;18.80;90.90
2389;DHT22;1205;47.984;7.668;2023-05-02T15:53:22;18.80;91.10
2389;DHT22;1205;47.984;7.668;2023-05-02T15:55:48;18.70;90.40
2389;DHT22;1205;47.984;7.668;2023-05-02T15:58:15;18.80;90.90
2389;DHT22;1205;47.984;7.668;2023-05-02T16:00:42;18.90;90.50
2389;DHT22;1205;47.984;7.668;2023-05-02T16:03:07;18.90;90.30
2389;DHT22;1205;47.984;7.668;2023-05-02T16:05:34;18.80;90.50
2389;DHT22;1205;47.984;7.668;2023-05-02T16:07:59;18.90;90.60
2389;DHT22;1205;47.984;7.668;2023-05-02T16:10:25;18.90;90.40
2389;DHT22;1205;47.984;7.668;2023-05-02T16:12:51;18.90;90.50
2389;DHT22;1205;47.984;7.668;2023-05-02T16:15:17;18.70;89.70
2389;DHT22;1205;47.984;7.668;2023-05-02T16:17:43;18.70;90.40
2389;DHT22;1205;47.984;7.668;2023-05-02T16:20:09;18.60;90.10
2389;DHT22;1205;47.984;7.668;2023-05-02T16:22:35;18.60;90.10
2389;DHT22;1205;47.984;7.668;2023-05-02T16:25:01;18.50;90.20
2389;DHT22;1205;47.984;7.668;2023-05-02T16:27:26;18.50;88.90
2389;DHT22;1205;47.984;7.668;2023-05-02T16:29:52;18.50;89.20
2389;DHT22;1205;47.984;7.668;2023-05-02T16:32:17;18.30;90.00
2389;DHT22;1205;47.984;7.668;2023-05-02T16:34:43;18.30;90.60
2389;DHT22;1205;47.984;7.668;2023-05-02T16:37:09;18.30;90.70
2389;DHT22;1205;47.984;7.668;2023-05-02T16:39:35;18.30;90.60
2389;DHT22;1205;47.984;7.668;2023-05-02T16:42:02;18.40;90.30
2389;DHT22;1205;47.984;7.668;2023-05-02T16:44:28;18.40;90.10
2389;DHT22;1205;47.984;7.668;2023-05-02T16:46:54;18.30;90.30
2389;DHT22;1205;47.984;7.668;2023-05-02T16:49:20;18.40;90.50